Time;durP1;ratioP1;P1;durP2;ratioP2;P2;SDS_P1;SDS_P2;PMS_P1;PMS_P2;Temp;Humidity;BMP_temperature;BMP_pressure;BME280_temperature;BME280_humidity;BME280_pressure;Samples;Min_cycle;Max_cycle;Signal;HPM_P1;HPM_P2
2023/03/03 00:00:07;;;;;;;25.38;13.40;;;1.30;99.90;;;;;;12479364;28;20084;-38
2023/03/03 00:06:12;;;;;;;21.93;12.13;;;1.30;99.90;;;;;;12418592;28;20124;-39
2023/03/03 00:12:27;;;;;;;22.35;12.05;;;1.30;99.90;;;;;;12487118;28;20408;-37
2023/03/03 00:18:32;;;;;;;;;;;1.20;99.90;;;;;;12476766;28;20057;-38
2023/03/03 00:24:36;;;;;;;25.65;12.35;;;1.20;99.90;;;;;;12479458;28;19925;-38
2023/03/03 00:30:39;;;;;;;25.42;12.70;;;1.20;99.90;;;;;;12493617;28;20064;-38
2023/03/03 00:36:41;;;;;;;30.83;14.50;;;1.30;99.90;;;;;;12472586;28;20053;-37
2023/03/03 00:42:56;;;;;;;25.33;13.13;;;1.30;99.90;;;;;;12490444;28;20050;-38
2023/03/03 00:48:58;;;;;;;28.65;14.25;;;1.30;99.90;;;;;;12485453;28;20183;-38
2023/03/03 00:55:01;;;;;;;29.48;14.68;;;1.30;99.90;;;;;;12489167;28;20137;-38
2023/03/03 01:01:03;;;;;;;30.38;14.63;;;1.20;99.90;;;;;;12497263;28;20449;-38
2023/03/03 01:07:05;;;;;;;26.17;14.52;;;1.20;99.90;;;;;;12490258;28;20045;-38
2023/03/03 01:13:08;;;;;;;30.05;16.23;;;1.20;99.90;;;;;;12482866;28;20144;-39
2023/03/03 01:19:11;;;;;;;31.27;16.30;;;1.10;99.90;;;;;;12477030;28;20140;-39
2023/03/03 01:25:13;;;;;;;28.88;15.38;;;1.10;99.90;;;;;;12471628;28;20501;-39
2023/03/03 01:31:16;;;;;;;27.80;14.40;;;1.10;99.90;;;;;;12472493;28;20045;-38
2023/03/03 01:37:19;;;;;;;27.85;15.80;;;1.10;99.90;;;;;;12463033;28;20190;-38
2023/03/03 01:43:30;;;;;;;33.03;16.15;;;1.10;99.90;;;;;;12448483;28;20058;-37
2023/03/03 01:49:38;;;;;;;39.00;18.35;;;1.10;99.90;;;;;;12451040;28;20982;-38
2023/03/03 01:55:41;;;;;;;37.78;16.92;;;1.20;99.90;;;;;;12454132;28;20041;-38
2023/03/03 02:01:45;;;;;;;43.45;17.67;;;1.20;99.90;;;;;;12475118;28;20485;-38
2023/03/03 02:07:48;;;;;;;37.42;16.08;;;1.20;99.90;;;;;;12469145;28;20041;-38
2023/03/03 02:13:50;;;;;;;50.15;19.65;;;1.20;99.90;;;;;;12467603;28;20037;-40
2023/03/03 02:20:33;;;;;;;44.83;17.10;;;1.20;99.90;;;;;;12457283;28;20178;-38
2023/03/03 02:26:40;;;;;;;52.55;18.55;;;1.10;99.90;;;;;;12388309;28;20084;-38
2023/03/03 02:32:44;;;;;;;69.10;22.40;;;1.10;99.90;;;;;;12480548;28;20136;-39
2023/03/03 02:39:06;;;;;;;62.47;21.67;;;1.10;99.90;;;;;;12480979;28;20191;-38
2023/03/03 02:45:08;;;;;;;74.10;23.60;;;1.00;99.90;;;;;;12459348;28;20065;-38
2023/03/03 02:51:10;;;;;;;69.70;22.17;;;1.00;99.90;;;;;;12494648;28;20052;-38
2023/03/03 02:57:12;;;;;;;67.90;19.90;;;0.80;99.90;;;;;;12479425;28;20065;-38
2023/03/03 03:03:15;;;;;;;60.83;20.58;;;0.70;99.90;;;;;;12473833;28;20136;-38
2023/03/03 03:09:18;;;;;;;63.97;19.90;;;0.70;99.90;;;;;;12476790;28;20140;-38
2023/03/03 03:15:21;;;;;;;64.77;21.03;;;0.50;99.90;;;;;;12460320;28;20073;-38
2023/03/03 03:21:34;;;;;;;62.20;17.98;;;0.40;99.90;;;;;;12490501;28;20111;-38
2023/03/03 03:27:35;;;;;;;65.40;19.98;;;0.50;99.90;;;;;;12418568;28;20053;-39
2023/03/03 03:33:38;;;;;;;73.30;21.35;;;0.50;99.90;;;;;;12432633;28;20057;-39
2023/03/03 03:39:40;;;;;;;64.20;18.75;;;0.40;99.90;;;;;;12423474;28;20049;-39
2023/03/03 03:45:42;;;;;;;72.15;20.40;;;0.50;99.90;;;;;;12430104;28;20295;-38
2023/03/03 03:51:45;;;;;;;62.45;20.48;;;0.40;99.90;;;;;;12414657;28;20046;-38
2023/03/03 03:57:47;;;;;;;62.30;18.38;;;0.40;99.90;;;;;;12426285;28;20053;-38
2023/03/03 04:03:49;;;;;;;71.65;21.45;;;0.40;99.90;;;;;;12403976;28;20045;-38
2023/03/03 04:09:51;;;;;;;67.28;21.20;;;0.50;99.90;;;;;;12405285;28;20376;-38
2023/03/03 04:15:53;;;;;;;62.78;19.85;;;0.40;99.90;;;;;;12447545;28;22369;-39
2023/03/03 04:21:57;;;;;;;59.85;18.98;;;0.50;99.90;;;;;;12453291;28;20084;-38
2023/03/03 04:27:59;;;;;;;66.22;20.02;;;0.50;99.90;;;;;;12454673;28;20140;-39
2023/03/03 04:34:01;;;;;;;75.65;19.48;;;0.40;99.90;;;;;;12475059;28;20463;-39
2023/03/03 04:40:05;;;;;;;66.10;19.55;;;0.40;99.90;;;;;;12459619;28;20053;-38
2023/03/03 04:46:07;;;;;;;70.72;20.75;;;0.50;99.90;;;;;;12469715;28;20056;-38
2023/03/03 04:52:09;;;;;;;68.43;23.05;;;0.50;99.90;;;;;;12458350;28;20148;-38
2023/03/03 04:58:11;;;;;;;67.10;21.05;;;0.40;99.90;;;;;;12464809;28;20108;-38
2023/03/03 05:04:13;;;;;;;73.72;21.27;;;0.50;99.90;;;;;;12431419;28;20111;-38
2023/03/03 05:10:15;;;;;;;68.85;21.80;;;0.50;99.90;;;;;;12458200;28;20052;-38
2023/03/03 05:16:17;;;;;;;74.88;23.15;;;0.40;99.90;;;;;;12416180;28;20072;-38
2023/03/03 05:22:19;;;;;;;85.30;23.20;;;0.40;99.90;;;;;;12456183;28;20535;-38
2023/03/03 05:28:21;;;;;;;78.10;22.63;;;0.40;99.90;;;;;;12355886;23;20135;-80
2023/03/03 05:34:23;;;;;;;78.30;23.08;;;0.50;99.90;;;;;;12323285;28;20055;-80
2023/03/03 05:40:26;;;;;;;88.32;25.00;;;0.40;99.90;;;;;;12308349;28;20074;-80
2023/03/03 05:46:29;;;;;;;78.20;23.33;;;0.50;99.90;;;;;;12290512;28;20554;-80
2023/03/03 05:52:31;;;;;;;68.93;23.92;;;0.40;99.90;;;;;;12284595;28;20042;-79
2023/03/03 05:58:37;;;;;;;81.43;24.90;;;0.30;99.90;;;;;;12302895;28;20504;-79
2023/03/03 06:04:41;;;;;;;74.95;22.15;;;0.20;99.90;;;;;;12297422;28;20096;-80
2023/03/03 06:10:48;;;;;;;75.53;23.73;;;0.20;99.90;;;;;;12280417;28;20324;-81
2023/03/03 06:16:50;;;;;;;54.40;18.08;;;0.30;99.90;;;;;;12288538;28;20122;-79
2023/03/03 06:22:55;;;;;;;83.63;24.42;;;0.40;99.90;;;;;;12312604;28;20078;-79
2023/03/03 06:28:58;;;;;;;72.30;22.45;;;0.40;99.90;;;;;;12320996;28;20118;-79
2023/03/03 06:35:00;;;;;;;73.32;22.88;;;0.30;99.90;;;;;;12288736;28;20051;-79
2023/03/03 06:41:06;;;;;;;60.22;18.55;;;0.20;99.90;;;;;;12335623;28;20059;-80
2023/03/03 06:47:08;;;;;;;61.67;20.50;;;0.30;99.90;;;;;;12314129;28;20583;-80
2023/03/03 06:53:14;;;;;;;70.25;22.42;;;0.50;99.90;;;;;;12296929;28;20503;-79
2023/03/03 06:59:19;;;;;;;67.05;20.58;;;0.40;99.90;;;;;;12325152;28;20128;-80
2023/03/03 07:05:24;;;;;;;68.55;21.17;;;0.30;99.90;;;;;;12318666;28;20039;-80
2023/03/03 07:11:26;;;;;;;57.72;17.92;;;0.40;99.90;;;;;;12317967;28;20051;-79
2023/03/03 07:17:30;;;;;;;71.43;23.05;;;0.60;99.90;;;;;;12309338;28;20073;-81
2023/03/03 07:23:41;;;;;;;67.55;21.70;;;0.50;99.90;;;;;;12321627;28;20237;-79
2023/03/03 07:29:46;;;;;;;73.00;22.45;;;0.50;99.90;;;;;;12307191;28;20677;-79
2023/03/03 07:35:49;;;;;;;53.70;15.95;;;0.50;99.90;;;;;;12303717;28;20051;-79
2023/03/03 07:41:51;;;;;;;58.92;19.50;;;0.60;99.90;;;;;;12307377;28;20070;-79
2023/03/03 07:48:19;;;;;;;58.95;19.60;;;0.70;99.90;;;;;;12301581;28;20054;-80
2023/03/03 07:54:30;;;;;;;42.17;14.32;;;0.50;99.90;;;;;;12263273;28;20081;-80
2023/03/03 08:00:38;;;;;;;67.60;20.65;;;0.90;99.90;;;;;;12273285;28;20096;-79
2023/03/03 08:06:50;;;;;;;59.85;20.55;;;0.80;99.90;;;;;;12290560;28;20351;-79
2023/03/03 08:13:07;;;;;;;50.72;18.83;;;0.70;99.90;;;;;;12296116;28;20054;-79
2023/03/03 08:19:13;;;;;;;52.78;18.58;;;0.80;99.90;;;;;;12286266;28;20050;-79
2023/03/03 08:25:15;;;;;;;54.38;18.30;;;1.00;99.90;;;;;;12325896;28;20136;-78
2023/03/03 08:31:17;;;;;;;54.35;18.13;;;1.20;99.90;;;;;;12308988;28;20051;-78
2023/03/03 08:37:39;;;;;;;45.55;16.42;;;1.20;99.90;;;;;;12328083;28;20147;-79
2023/03/03 08:43:42;;;;;;;51.97;18.10;;;1.40;99.90;;;;;;12349933;28;20030;-78
2023/03/03 08:49:43;;;;;;;50.60;18.48;;;1.20;99.90;;;;;;12367318;28;20047;-79
2023/03/03 08:55:47;;;;;;;44.53;16.65;;;1.30;99.90;;;;;;12381814;28;20061;-79
2023/03/03 09:01:48;;;;;;;57.20;18.52;;;1.30;99.90;;;;;;12329620;28;20141;-78
2023/03/03 09:07:52;;;;;;;54.85;19.00;;;1.90;99.90;;;;;;12308440;28;20055;-79
2023/03/03 09:14:15;;;;;;;59.47;19.25;;;1.60;99.90;;;;;;12322490;28;20525;-79
2023/03/03 09:20:29;;;;;;;54.65;19.27;;;1.80;99.90;;;;;;12312076;28;20077;-78
2023/03/03 09:26:54;;;;;;;51.40;18.07;;;2.10;99.90;;;;;;12314148;28;20047;-79
2023/03/03 09:32:57;;;;;;;;;;;2.10;99.90;;;;;;12265044;28;20043;-78
2023/03/03 09:38:59;;;;;;;58.95;19.15;;;2.10;99.90;;;;;;12288243;28;19922;-78
2023/03/03 09:45:01;;;;;;;64.85;22.52;;;2.00;99.90;;;;;;12276625;28;20211;-79
2023/03/03 09:51:14;;;;;;;57.28;21.00;;;2.00;99.90;;;;;;12305781;28;20208;-78
2023/03/03 09:57:23;;;;;;;67.78;23.35;;;1.90;99.90;;;;;;12281600;28;20292;-78
2023/03/03 10:03:25;;;;;;;66.05;24.58;;;1.90;99.90;;;;;;12285861;28;20423;-78
2023/03/03 10:09:58;;;;;;;62.90;23.90;;;2.20;99.90;;;;;;12267303;28;20055;-78
2023/03/03 10:16:16;;;;;;;62.30;24.02;;;1.90;99.90;;;;;;12276624;28;20066;-78
2023/03/03 10:22:52;;;;;;;51.10;19.73;;;2.10;99.90;;;;;;12284980;28;20063;-79
2023/03/03 10:29:22;;;;;;;55.50;21.33;;;2.20;99.90;;;;;;12310969;28;20565;-78
2023/03/03 10:35:38;;;;;;;56.90;21.50;;;2.60;99.90;;;;;;12295262;28;20519;-79
2023/03/03 10:42:08;;;;;;;53.88;19.60;;;2.60;99.90;;;;;;12329552;28;20055;-78
2023/03/03 10:48:20;;;;;;;47.90;18.30;;;2.40;99.90;;;;;;12291927;28;20117;-78
2023/03/03 10:54:31;;;;;;;51.80;20.02;;;2.60;99.90;;;;;;12303806;28;20141;-79
2023/03/03 11:00:48;;;;;;;47.80;18.27;;;2.30;99.90;;;;;;12295675;28;20047;-78
2023/03/03 11:07:12;;;;;;;51.33;19.35;;;2.30;99.90;;;;;;12311129;28;20050;-79
2023/03/03 11:13:51;;;;;;;49.17;18.65;;;2.20;99.90;;;;;;12295262;28;20786;-78
2023/03/03 11:20:29;;;;;;;50.13;18.58;;;3.20;99.90;;;;;;12281939;28;20114;-78
2023/03/03 11:26:55;;;;;;;45.50;18.73;;;3.60;99.90;;;;;;12254735;28;20530;-78
2023/03/03 11:33:00;;;;;;;44.40;18.15;;;3.60;99.90;;;;;;12294671;28;20154;-78
2023/03/03 11:39:07;;;;;;;50.05;18.98;;;3.80;99.90;;;;;;12307863;28;20042;-78
2023/03/03 11:45:28;;;;;;;49.33;20.52;;;3.70;99.90;;;;;;12298383;28;20676;-78
2023/03/03 11:51:50;;;;;;;41.45;16.73;;;3.60;99.90;;;;;;12288796;28;20051;-79
2023/03/03 11:58:37;;;;;;;39.25;15.02;;;3.80;99.90;;;;;;12317137;28;20410;-78
2023/03/03 12:04:49;;;;;;;43.40;17.08;;;4.10;99.90;;;;;;12324808;28;20486;-78
2023/03/03 12:11:25;;;;;;;53.45;18.73;;;4.20;99.90;;;;;;12299651;28;20055;-78
2023/03/03 12:17:46;;;;;;;39.55;17.23;;;3.80;99.90;;;;;;12300312;28;20569;-79
2023/03/03 12:24:07;;;;;;;37.55;15.18;;;4.00;99.90;;;;;;12308241;28;20039;-78
2023/03/03 12:30:24;;;;;;;40.58;16.17;;;4.20;99.90;;;;;;12275266;28;20062;-79
2023/03/03 12:36:54;;;;;;;38.60;16.17;;;4.50;99.90;;;;;;12308132;28;20105;-78
2023/03/03 12:43:10;;;;;;;32.95;13.82;;;5.00;99.90;;;;;;12297270;28;20055;-78
2023/03/03 12:49:12;;;;;;;33.78;14.82;;;4.60;99.90;;;;;;12312305;28;20415;-79
2023/03/03 12:55:20;;;;;;;29.48;13.20;;;4.70;99.90;;;;;;12301558;28;20055;-79
2023/03/03 13:02:16;;;;;;;32.65;12.45;;;5.10;99.90;;;;;;12342579;28;20202;-78
2023/03/03 13:09:00;;;;;;;33.00;12.80;;;5.10;99.90;;;;;;12262047;28;20055;-78
2023/03/03 13:15:02;;;;;;;29.35;12.60;;;4.90;99.90;;;;;;12307483;28;20077;-78
2023/03/03 13:21:21;;;;;;;29.60;13.10;;;4.50;99.90;;;;;;12344028;28;20054;-79
2023/03/03 13:27:30;;;;;;;26.90;11.95;;;4.80;99.90;;;;;;12326304;28;20055;-78
2023/03/03 13:33:37;;;;;;;28.70;11.95;;;4.80;99.90;;;;;;12316121;28;20039;-78
2023/03/03 13:40:15;;;;;;;24.67;11.00;;;5.00;99.90;;;;;;12307973;28;20174;-79
2023/03/03 13:46:51;;;;;;;22.02;11.15;;;4.80;99.90;;;;;;12315573;28;20113;-78
2023/03/03 13:52:59;;;;;;;21.55;11.15;;;4.80;99.90;;;;;;12286603;28;20055;-79
2023/03/03 13:59:27;;;;;;;21.02;10.20;;;4.80;99.90;;;;;;12322384;28;20063;-78
2023/03/03 14:05:50;;;;;;;26.25;12.52;;;4.90;99.90;;;;;;12328678;28;20047;-78
2023/03/03 14:12:20;;;;;;;25.10;11.93;;;4.80;99.90;;;;;;12320425;28;20133;-79
2023/03/03 14:19:10;;;;;;;22.80;11.05;;;4.40;99.90;;;;;;12282693;28;20101;-78
2023/03/03 14:25:14;;;;;;;27.30;11.07;;;4.30;99.90;;;;;;12321682;28;20082;-78
2023/03/03 14:31:21;;;;;;;19.57;9.80;;;4.20;99.90;;;;;;12281737;28;20074;-78
2023/03/03 14:37:42;;;;;;;25.15;11.95;;;4.10;99.90;;;;;;12310119;28;20083;-78
2023/03/03 14:43:57;;;;;;;23.40;11.07;;;3.90;99.90;;;;;;12332562;28;20054;-78
2023/03/03 14:50:01;;;;;;;25.85;12.05;;;4.00;99.90;;;;;;12333654;28;20051;-78
2023/03/03 14:56:25;;;;;;;27.77;11.50;;;3.80;99.90;;;;;;12323213;28;20051;-79
2023/03/03 15:02:33;;;;;;;25.55;12.02;;;4.00;99.90;;;;;;12339604;28;20061;-78
2023/03/03 15:08:37;;;;;;;25.75;11.35;;;4.20;99.90;;;;;;12316101;28;20066;-79
2023/03/03 15:14:45;;;;;;;34.42;13.85;;;4.20;99.90;;;;;;12301639;28;20093;-79
2023/03/03 15:20:54;;;;;;;32.33;12.75;;;4.00;99.90;;;;;;12353277;28;20082;-78
2023/03/03 15:27:05;;;;;;;36.53;14.18;;;4.00;99.90;;;;;;12348151;28;20137;-78
2023/03/03 15:33:45;;;;;;;31.17;13.35;;;4.00;99.90;;;;;;12316029;28;20069;-79
2023/03/03 15:40:24;;;;;;;38.03;13.25;;;3.90;99.90;;;;;;12332855;28;20038;-79
2023/03/03 15:46:43;;;;;;;36.55;14.32;;;4.00;99.90;;;;;;12313544;28;20086;-78
2023/03/03 15:53:03;;;;;;;32.95;13.95;;;4.00;99.90;;;;;;12325759;28;20049;-77
2023/03/03 15:59:14;;;;;;;38.67;15.10;;;4.00;99.90;;;;;;12348128;28;20062;-78
2023/03/03 16:05:38;;;;;;;33.95;14.10;;;4.10;99.90;;;;;;12354724;28;20046;-77
2023/03/03 16:11:49;;;;;;;33.33;13.32;;;4.00;99.90;;;;;;12363477;28;20090;-78
2023/03/03 16:18:02;;;;;;;37.75;14.60;;;3.90;99.90;;;;;;12303890;28;20050;-79
2023/03/03 16:24:33;;;;;;;35.80;13.77;;;3.90;99.90;;;;;;12317409;28;20038;-77
2023/03/03 16:30:47;;;;;;;37.35;13.95;;;3.80;99.90;;;;;;12351758;28;20050;-78
2023/03/03 16:37:00;;;;;;;34.17;13.80;;;3.80;99.90;;;;;;12328950;28;20055;-78
2023/03/03 16:43:24;;;;;;;35.38;15.00;;;3.70;99.90;;;;;;12321925;28;20384;-78
2023/03/03 16:49:46;;;;;;;35.72;14.35;;;3.50;99.90;;;;;;12310604;28;20047;-78
2023/03/03 16:56:17;;;;;;;37.15;14.90;;;3.30;99.90;;;;;;12304714;28;20050;-78
2023/03/03 17:02:49;;;;;;;41.63;16.63;;;3.10;99.90;;;;;;12306933;28;20063;-78
2023/03/03 17:09:00;;;;;;;34.50;13.75;;;2.80;99.90;;;;;;12314325;28;20042;-78
2023/03/03 17:15:43;;;;;;;39.65;13.95;;;2.70;99.90;;;;;;12326092;28;20206;-78
2023/03/03 17:21:57;;;;;;;39.45;15.48;;;2.50;99.90;;;;;;12330775;28;20043;-78
2023/03/03 17:28:12;;;;;;;40.93;15.53;;;2.60;99.90;;;;;;12321720;28;20063;-78
2023/03/03 17:34:18;;;;;;;40.17;14.90;;;2.60;99.90;;;;;;12341947;28;20051;-78
2023/03/03 17:40:36;;;;;;;41.17;15.90;;;2.70;99.90;;;;;;12331073;28;20181;-78
2023/03/03 17:46:52;;;;;;;42.00;16.92;;;2.70;99.90;;;;;;12312772;28;20046;-78
2023/03/03 17:53:25;;;;;;;41.33;17.48;;;2.80;99.90;;;;;;12318495;28;20886;-78
2023/03/03 17:59:59;;;;;;;42.00;17.42;;;2.90;99.90;;;;;;12313772;28;20055;-78
2023/03/03 18:06:03;;;;;;;48.92;21.20;;;3.00;99.90;;;;;;12304487;28;20058;-78
2023/03/03 18:12:11;;;;;;;48.13;19.23;;;3.10;99.90;;;;;;12343664;28;20038;-78
2023/03/03 18:18:42;;;;;;;52.15;20.08;;;3.10;99.90;;;;;;12332856;28;20090;-79
2023/03/03 18:24:50;;;;;;;49.42;21.85;;;3.20;99.90;;;;;;12311994;28;20417;-78
2023/03/03 18:30:59;;;;;;;43.80;19.73;;;3.20;99.90;;;;;;12309083;28;20135;-78
2023/03/03 18:37:09;;;;;;;50.45;20.42;;;3.30;99.90;;;;;;12308923;28;20047;-78
2023/03/03 18:43:47;;;;;;;49.75;20.27;;;3.30;99.90;;;;;;12326525;28;20055;-78
2023/03/03 18:49:51;;;;;;;49.97;20.00;;;3.30;99.90;;;;;;12316768;28;20134;-78
2023/03/03 18:55:56;;;;;;;35.47;13.55;;;3.30;99.90;;;;;;12326601;28;20498;-78
2023/03/03 19:02:19;;;;;;;45.97;18.35;;;3.30;99.90;;;;;;12355715;28;20051;-78
2023/03/03 19:08:25;;;;;;;43.08;17.42;;;3.30;99.90;;;;;;12317262;28;20415;-78
2023/03/03 19:14:35;;;;;;;41.60;18.33;;;3.30;99.90;;;;;;12329328;28;20085;-78
2023/03/03 19:20:42;;;;;;;42.15;16.55;;;3.40;99.90;;;;;;12325953;28;20149;-78
2023/03/03 19:27:10;;;;;;;39.67;18.23;;;3.40;99.90;;;;;;12325848;28;20051;-77
2023/03/03 19:33:21;;;;;;;32.30;14.57;;;3.40;99.90;;;;;;12338510;28;20046;-78
2023/03/03 19:39:38;;;;;;;34.70;15.38;;;3.50;99.90;;;;;;12337121;28;20049;-78
2023/03/03 19:46:17;;;;;;;31.95;14.48;;;3.60;99.90;;;;;;12351502;28;20541;-79
2023/03/03 19:52:48;;;;;;;35.60;14.60;;;3.60;99.90;;;;;;12310547;28;20054;-78
2023/03/03 19:59:02;;;;;;;24.52;12.13;;;3.60;99.90;;;;;;12348549;28;20419;-78
2023/03/03 20:05:26;;;;;;;23.23;11.18;;;3.70;99.90;;;;;;12323176;28;20438;-78
2023/03/03 20:11:51;;;;;;;28.33;13.17;;;3.80;99.90;;;;;;12310652;28;20053;-78
2023/03/03 20:18:15;;;;;;;20.33;9.82;;;3.70;99.90;;;;;;12327018;28;20168;-79
2023/03/03 20:24:36;;;;;;;21.20;10.10;;;3.80;99.90;;;;;;12306291;28;20050;-78
2023/03/03 20:31:05;;;;;;;20.58;8.43;;;3.80;99.90;;;;;;12349090;28;20043;-77
2023/03/03 20:37:35;;;;;;;17.85;8.95;;;3.90;99.90;;;;;;12346101;28;20054;-78
2023/03/03 20:43:42;;;;;;;21.08;9.07;;;3.90;99.90;;;;;;12350347;28;20046;-78
2023/03/03 20:50:27;;;;;;;17.13;9.73;;;3.90;99.90;;;;;;12334387;28;20046;-78
2023/03/03 20:56:29;;;;;;;15.23;7.88;;;3.90;99.90;;;;;;12293689;28;20063;-78
2023/03/03 21:03:01;;;;;;;16.23;7.97;;;3.90;99.90;;;;;;12351237;28;20138;-78
2023/03/03 21:09:03;;;;;;;11.13;5.00;;;3.90;99.90;;;;;;12324732;28;20047;-78
2023/03/03 21:15:35;;;;;;;8.40;3.28;;;4.00;99.90;;;;;;12332071;28;20034;-78
2023/03/03 21:21:39;;;;;;;11.35;2.42;;;4.10;99.90;;;;;;12263437;28;20105;-78
2023/03/03 21:27:41;;;;;;;15.57;3.10;;;4.30;99.90;;;;;;12313292;28;20051;-78
2023/03/03 21:33:49;;;;;;;14.80;2.58;;;4.30;99.90;;;;;;12304502;28;20051;-78
2023/03/03 21:40:12;;;;;;;8.90;2.55;;;4.20;99.90;;;;;;12335203;28;20058;-78
2023/03/03 21:46:22;;;;;;;13.02;3.05;;;4.20;99.90;;;;;;12317646;28;20050;-78
2023/03/03 21:52:24;;;;;;;12.43;2.97;;;4.30;99.90;;;;;;12310468;28;20039;-78
2023/03/03 21:58:26;;;;;;;16.25;4.78;;;4.20;99.90;;;;;;12321533;28;20061;-78
2023/03/03 22:04:28;;;;;;;16.25;3.00;;;4.20;99.90;;;;;;12322230;28;20431;-78
2023/03/03 22:10:30;;;;;;;17.92;3.55;;;4.20;99.90;;;;;;12317137;28;20105;-78
2023/03/03 22:16:32;;;;;;;20.33;3.70;;;4.20;99.90;;;;;;12321915;28;20055;-78
2023/03/03 22:22:35;;;;;;;11.10;2.58;;;4.20;99.90;;;;;;12334788;28;20063;-78
2023/03/03 22:28:37;;;;;;;21.63;3.00;;;4.20;99.90;;;;;;12344700;28;20061;-79
2023/03/03 22:34:39;;;;;;;20.50;2.67;;;4.10;99.90;;;;;;12329566;28;20051;-78
2023/03/03 22:40:42;;;;;;;16.48;2.30;;;4.20;99.90;;;;;;12295049;28;20181;-79
2023/03/03 22:46:45;;;;;;;16.90;3.07;;;4.40;99.90;;;;;;12330379;28;20047;-78
2023/03/03 22:52:46;;;;;;;20.88;3.00;;;4.30;99.90;;;;;;12317945;28;20194;-78
2023/03/03 22:58:48;;;;;;;12.57;2.50;;;4.10;99.90;;;;;;12338368;28;20453;-79
2023/03/03 23:04:56;;;;;;;15.02;3.13;;;4.10;99.90;;;;;;12365940;28;20051;-78
2023/03/03 23:10:58;;;;;;;16.40;3.22;;;4.00;99.90;;;;;;12325698;28;20055;-78
2023/03/03 23:17:00;;;;;;;19.02;3.00;;;4.00;99.90;;;;;;12329691;28;20092;-78
2023/03/03 23:23:02;;;;;;;19.83;4.00;;;3.90;99.90;;;;;;12351158;28;20123;-79
2023/03/03 23:29:04;;;;;;;17.63;3.00;;;4.00;99.90;;;;;;12319843;28;20050;-79
2023/03/03 23:35:06;;;;;;;12.80;2.58;;;3.90;99.90;;;;;;12307305;28;20043;-79
2023/03/03 23:41:09;;;;;;;20.42;2.72;;;3.90;99.90;;;;;;12320483;28;20445;-79
2023/03/03 23:47:12;;;;;;;21.75;3.13;;;3.90;99.90;;;;;;12350771;28;20097;-79
2023/03/03 23:53:14;;;;;;;14.95;3.00;;;3.90;99.90;;;;;;12334548;28;20053;-79
2023/03/03 23:59:16;;;;;;;16.75;3.15;;;4.00;99.90;;;;;;12346947;28;20047;-80
